MPMG

Marcos A. Gelabert International Airport

Albrook, Panama
METAR MPMG 230000Z VRB02KT 9999 SCT018 SCT080 28/25 Q1010 NOSIG
Observed Flight Rules
May-23 @ 00:00 UTC (52 minutes ago) Visual Flight Rules
Wind Visibility Clouds
Variable at 2 knots 10,000+ meters
  • Scattered at 1,800' AGL
  • Scattered at 8,000' AGL
Temperatures Readings
Current 28°C / 82°F
Dewpoint 25°C / 77°F
Humidity 84%
Altimeter 29.82" Hg
Pressure 1010 hPa
Elevation 13
METAR MPMG 230000Z VRB02KT 9999 SCT018 SCT080 28/25 Q1010 NOSIG
Observed Flight Rules
May-23 @ 00:00 UTC
(52 minutes ago)
VFR
Wind Visibility
Variable at 2 knots 10,000+ meters
Clouds
  • Scattered at 1,800' AGL
  • Scattered at 8,000' AGL
Temperature Dewpoint
28°C / 82°F 25°C / 77°F
Humidity Altimeter Pressure
84% 29.82" Hg 1010 hPa